sensor_id;sensor_type;location;lat;lon;timestamp;P1;durP1;ratioP1;P2;durP2;ratioP2
1026;SDS011;502;48.746;9.214;2023-04-05T00:01:57;7.30;;;5.90;;
1026;SDS011;502;48.746;9.214;2023-04-05T00:04:24;5.17;;;4.67;;
1026;SDS011;502;48.746;9.214;2023-04-05T00:06:52;6.27;;;5.07;;
1026;SDS011;502;48.746;9.214;2023-04-05T00:09:19;7.93;;;6.00;;
1026;SDS011;502;48.746;9.214;2023-04-05T00:11:46;6.97;;;5.60;;
1026;SDS011;502;48.746;9.214;2023-04-05T00:14:13;5.77;;;5.20;;
1026;SDS011;502;48.746;9.214;2023-04-05T00:16:41;6.50;;;5.53;;
1026;SDS011;502;48.746;9.214;2023-04-05T00:19:08;10.03;;;5.43;;
1026;SDS011;502;48.746;9.214;2023-04-05T00:21:37;7.27;;;5.90;;
1026;SDS011;502;48.746;9.214;2023-04-05T00:24:04;7.90;;;6.13;;
1026;SDS011;502;48.746;9.214;2023-04-05T00:26:32;6.77;;;5.40;;
1026;SDS011;502;48.746;9.214;2023-04-05T00:28:58;6.37;;;5.17;;
1026;SDS011;502;48.746;9.214;2023-04-05T00:31:26;7.30;;;5.83;;
1026;SDS011;502;48.746;9.214;2023-04-05T00:33:55;6.73;;;5.80;;
1026;SDS011;502;48.746;9.214;2023-04-05T00:36:22;6.60;;;5.40;;
1026;SDS011;502;48.746;9.214;2023-04-05T00:38:49;7.40;;;6.03;;
1026;SDS011;502;48.746;9.214;2023-04-05T00:41:15;7.07;;;5.57;;
1026;SDS011;502;48.746;9.214;2023-04-05T00:43:42;6.70;;;5.83;;
1026;SDS011;502;48.746;9.214;2023-04-05T00:46:09;6.77;;;5.27;;
1026;SDS011;502;48.746;9.214;2023-04-05T00:48:36;10.40;;;5.93;;
1026;SDS011;502;48.746;9.214;2023-04-05T00:51:05;6.67;;;5.97;;
1026;SDS011;502;48.746;9.214;2023-04-05T00:53:33;7.40;;;6.00;;
1026;SDS011;502;48.746;9.214;2023-04-05T00:56:00;8.37;;;6.10;;
1026;SDS011;502;48.746;9.214;2023-04-05T00:58:28;7.20;;;5.37;;
1026;SDS011;502;48.746;9.214;2023-04-05T01:00:58;9.00;;;5.50;;
1026;SDS011;502;48.746;9.214;2023-04-05T01:03:30;6.77;;;5.27;;
1026;SDS011;502;48.746;9.214;2023-04-05T01:06:01;9.50;;;6.20;;
1026;SDS011;502;48.746;9.214;2023-04-05T01:08:36;6.37;;;5.67;;
1026;SDS011;502;48.746;9.214;2023-04-05T01:11:08;6.23;;;5.10;;
1026;SDS011;502;48.746;9.214;2023-04-05T01:13:35;7.03;;;6.07;;
1026;SDS011;502;48.746;9.214;2023-04-05T01:16:02;7.53;;;5.83;;
1026;SDS011;502;48.746;9.214;2023-04-05T01:18:29;7.07;;;6.37;;
1026;SDS011;502;48.746;9.214;2023-04-05T01:20:58;8.00;;;5.67;;
1026;SDS011;502;48.746;9.214;2023-04-05T01:23:40;7.30;;;5.67;;
1026;SDS011;502;48.746;9.214;2023-04-05T01:29:26;12.13;;;6.17;;
1026;SDS011;502;48.746;9.214;2023-04-05T01:32:29;7.77;;;6.17;;
1026;SDS011;502;48.746;9.214;2023-04-05T01:35:00;8.17;;;6.67;;
1026;SDS011;502;48.746;9.214;2023-04-05T01:37:31;8.67;;;6.60;;
1026;SDS011;502;48.746;9.214;2023-04-05T01:40:00;8.23;;;6.47;;
1026;SDS011;502;48.746;9.214;2023-04-05T01:42:26;10.27;;;7.47;;
1026;SDS011;502;48.746;9.214;2023-04-05T01:44:55;8.23;;;6.47;;
1026;SDS011;502;48.746;9.214;2023-04-05T01:47:23;8.30;;;6.10;;
1026;SDS011;502;48.746;9.214;2023-04-05T01:49:50;8.07;;;7.27;;
1026;SDS011;502;48.746;9.214;2023-04-05T01:52:16;8.50;;;6.70;;
1026;SDS011;502;48.746;9.214;2023-04-05T01:54:43;8.13;;;6.40;;
1026;SDS011;502;48.746;9.214;2023-04-05T01:57:10;8.23;;;6.60;;
1026;SDS011;502;48.746;9.214;2023-04-05T01:59:36;8.90;;;6.60;;
1026;SDS011;502;48.746;9.214;2023-04-05T02:02:07;8.67;;;7.00;;
1026;SDS011;502;48.746;9.214;2023-04-05T02:04:34;8.43;;;6.90;;
1026;SDS011;502;48.746;9.214;2023-04-05T02:07:01;7.50;;;6.07;;
1026;SDS011;502;48.746;9.214;2023-04-05T02:09:28;9.37;;;6.60;;
1026;SDS011;502;48.746;9.214;2023-04-05T02:11:54;7.47;;;6.20;;
1026;SDS011;502;48.746;9.214;2023-04-05T02:14:22;9.33;;;7.00;;
1026;SDS011;502;48.746;9.214;2023-04-05T02:16:49;6.70;;;6.00;;
1026;SDS011;502;48.746;9.214;2023-04-05T02:19:20;7.77;;;6.60;;
1026;SDS011;502;48.746;9.214;2023-04-05T02:21:47;9.23;;;7.10;;
1026;SDS011;502;48.746;9.214;2023-04-05T02:24:14;10.00;;;7.40;;
1026;SDS011;502;48.746;9.214;2023-04-05T02:26:41;9.67;;;6.77;;
1026;SDS011;502;48.746;9.214;2023-04-05T02:29:08;10.40;;;6.87;;
1026;SDS011;502;48.746;9.214;2023-04-05T02:31:35;9.70;;;6.83;;
1026;SDS011;502;48.746;9.214;2023-04-05T02:34:01;10.33;;;6.50;;
1026;SDS011;502;48.746;9.214;2023-04-05T02:36:31;8.90;;;6.40;;
1026;SDS011;502;48.746;9.214;2023-04-05T02:38:58;9.60;;;6.50;;
1026;SDS011;502;48.746;9.214;2023-04-05T02:41:25;7.30;;;6.50;;
1026;SDS011;502;48.746;9.214;2023-04-05T02:43:52;8.63;;;6.73;;
1026;SDS011;502;48.746;9.214;2023-04-05T02:46:18;7.93;;;6.40;;
1026;SDS011;502;48.746;9.214;2023-04-05T02:48:45;8.60;;;7.07;;
1026;SDS011;502;48.746;9.214;2023-04-05T02:51:14;9.03;;;6.73;;
1026;SDS011;502;48.746;9.214;2023-04-05T02:53:42;9.90;;;6.73;;
1026;SDS011;502;48.746;9.214;2023-04-05T02:56:12;9.93;;;6.43;;
1026;SDS011;502;48.746;9.214;2023-04-05T02:58:42;8.07;;;7.27;;
1026;SDS011;502;48.746;9.214;2023-04-05T03:01:09;10.40;;;7.30;;
1026;SDS011;502;48.746;9.214;2023-04-05T03:03:36;8.20;;;6.50;;
1026;SDS011;502;48.746;9.214;2023-04-05T03:06:05;6.83;;;5.90;;
1026;SDS011;502;48.746;9.214;2023-04-05T03:08:38;8.47;;;6.47;;
1026;SDS011;502;48.746;9.214;2023-04-05T03:11:10;9.40;;;7.03;;
1026;SDS011;502;48.746;9.214;2023-04-05T03:13:38;10.57;;;7.70;;
1026;SDS011;502;48.746;9.214;2023-04-05T03:16:12;11.00;;;7.23;;
1026;SDS011;502;48.746;9.214;2023-04-05T03:18:40;8.03;;;6.83;;
1026;SDS011;502;48.746;9.214;2023-04-05T03:21:09;8.87;;;7.30;;
1026;SDS011;502;48.746;9.214;2023-04-05T03:23:42;9.37;;;7.10;;
1026;SDS011;502;48.746;9.214;2023-04-05T03:26:14;9.17;;;6.90;;
1026;SDS011;502;48.746;9.214;2023-04-05T03:28:46;8.00;;;6.30;;
1026;SDS011;502;48.746;9.214;2023-04-05T03:31:13;10.10;;;7.87;;
1026;SDS011;502;48.746;9.214;2023-04-05T03:33:39;8.30;;;6.87;;
1026;SDS011;502;48.746;9.214;2023-04-05T03:36:06;8.43;;;7.20;;
1026;SDS011;502;48.746;9.214;2023-04-05T03:38:36;8.70;;;6.70;;
1026;SDS011;502;48.746;9.214;2023-04-05T03:41:15;8.70;;;6.37;;
1026;SDS011;502;48.746;9.214;2023-04-05T03:43:42;9.03;;;6.63;;
1026;SDS011;502;48.746;9.214;2023-04-05T03:46:09;10.10;;;7.57;;
1026;SDS011;502;48.746;9.214;2023-04-05T03:48:36;8.80;;;6.83;;
1026;SDS011;502;48.746;9.214;2023-04-05T03:51:02;9.70;;;6.80;;
1026;SDS011;502;48.746;9.214;2023-04-05T03:53:30;8.83;;;7.07;;
1026;SDS011;502;48.746;9.214;2023-04-05T03:55:58;8.83;;;7.17;;
1026;SDS011;502;48.746;9.214;2023-04-05T03:58:39;9.77;;;7.27;;
1026;SDS011;502;48.746;9.214;2023-04-05T04:01:06;8.50;;;6.90;;
1026;SDS011;502;48.746;9.214;2023-04-05T04:03:33;9.27;;;6.80;;
1026;SDS011;502;48.746;9.214;2023-04-05T04:06:01;11.47;;;7.27;;
1026;SDS011;502;48.746;9.214;2023-04-05T04:08:28;10.90;;;7.17;;
1026;SDS011;502;48.746;9.214;2023-04-05T04:10:57;12.00;;;7.50;;
1026;SDS011;502;48.746;9.214;2023-04-05T04:13:28;9.50;;;7.17;;
1026;SDS011;502;48.746;9.214;2023-04-05T04:16:01;9.70;;;7.17;;
1026;SDS011;502;48.746;9.214;2023-04-05T04:18:47;8.77;;;6.50;;
1026;SDS011;502;48.746;9.214;2023-04-05T04:21:27;10.63;;;6.73;;
1026;SDS011;502;48.746;9.214;2023-04-05T04:24:20;12.60;;;7.83;;
1026;SDS011;502;48.746;9.214;2023-04-05T04:26:47;11.23;;;8.57;;
1026;SDS011;502;48.746;9.214;2023-04-05T04:29:34;9.13;;;7.63;;
1026;SDS011;502;48.746;9.214;2023-04-05T04:32:30;10.20;;;7.63;;
1026;SDS011;502;48.746;9.214;2023-04-05T04:35:26;7.63;;;6.90;;
1026;SDS011;502;48.746;9.214;2023-04-05T04:38:16;10.17;;;7.03;;
1026;SDS011;502;48.746;9.214;2023-04-05T04:41:10;9.67;;;7.33;;
1026;SDS011;502;48.746;9.214;2023-04-05T04:44:01;8.30;;;6.40;;
1026;SDS011;502;48.746;9.214;2023-04-05T04:46:29;10.83;;;7.20;;
1026;SDS011;502;48.746;9.214;2023-04-05T04:49:09;12.83;;;7.10;;
1026;SDS011;502;48.746;9.214;2023-04-05T04:51:43;10.07;;;7.07;;
1026;SDS011;502;48.746;9.214;2023-04-05T04:54:10;9.60;;;7.80;;
1026;SDS011;502;48.746;9.214;2023-04-05T04:56:37;13.03;;;7.50;;
1026;SDS011;502;48.746;9.214;2023-04-05T04:59:04;8.67;;;6.97;;
1026;SDS011;502;48.746;9.214;2023-04-05T05:01:30;11.80;;;7.43;;
1026;SDS011;502;48.746;9.214;2023-04-05T05:03:59;11.20;;;7.63;;
1026;SDS011;502;48.746;9.214;2023-04-05T05:06:34;9.60;;;7.10;;
1026;SDS011;502;48.746;9.214;2023-04-05T05:09:00;11.97;;;7.83;;
1026;SDS011;502;48.746;9.214;2023-04-05T05:11:30;11.20;;;8.70;;
1026;SDS011;502;48.746;9.214;2023-04-05T05:13:58;11.23;;;8.23;;
1026;SDS011;502;48.746;9.214;2023-04-05T05:16:26;12.00;;;7.90;;
1026;SDS011;502;48.746;9.214;2023-04-05T05:18:53;11.40;;;8.00;;
1026;SDS011;502;48.746;9.214;2023-04-05T05:21:22;10.23;;;8.03;;
1026;SDS011;502;48.746;9.214;2023-04-05T05:23:55;9.53;;;7.70;;
1026;SDS011;502;48.746;9.214;2023-04-05T05:26:22;11.57;;;8.20;;
1026;SDS011;502;48.746;9.214;2023-04-05T05:28:49;10.43;;;7.80;;
1026;SDS011;502;48.746;9.214;2023-04-05T05:31:17;9.80;;;7.87;;
1026;SDS011;502;48.746;9.214;2023-04-05T05:33:43;10.57;;;8.40;;
1026;SDS011;502;48.746;9.214;2023-04-05T05:36:13;14.90;;;8.40;;
1026;SDS011;502;48.746;9.214;2023-04-05T05:38:40;10.87;;;8.43;;
1026;SDS011;502;48.746;9.214;2023-04-05T05:41:09;12.10;;;7.67;;
1026;SDS011;502;48.746;9.214;2023-04-05T05:43:35;11.60;;;7.33;;
1026;SDS011;502;48.746;9.214;2023-04-05T05:46:02;12.63;;;7.93;;
1026;SDS011;502;48.746;9.214;2023-04-05T05:48:29;10.43;;;7.70;;
1026;SDS011;502;48.746;9.214;2023-04-05T05:50:56;10.97;;;7.97;;
1026;SDS011;502;48.746;9.214;2023-04-05T05:53:25;10.00;;;7.70;;
1026;SDS011;502;48.746;9.214;2023-04-05T05:55:52;10.37;;;7.37;;
1026;SDS011;502;48.746;9.214;2023-04-05T05:58:21;10.87;;;7.40;;
1026;SDS011;502;48.746;9.214;2023-04-05T06:00:48;11.43;;;7.90;;
1026;SDS011;502;48.746;9.214;2023-04-05T06:03:16;9.50;;;7.90;;
1026;SDS011;502;48.746;9.214;2023-04-05T06:05:49;9.93;;;7.73;;
1026;SDS011;502;48.746;9.214;2023-04-05T06:08:16;9.40;;;7.50;;
1026;SDS011;502;48.746;9.214;2023-04-05T06:10:43;11.73;;;8.10;;
1026;SDS011;502;48.746;9.214;2023-04-05T06:13:09;9.97;;;8.27;;
1026;SDS011;502;48.746;9.214;2023-04-05T06:15:37;9.47;;;8.10;;
1026;SDS011;502;48.746;9.214;2023-04-05T06:18:04;9.97;;;7.67;;
1026;SDS011;502;48.746;9.214;2023-04-05T06:20:31;9.73;;;7.53;;
1026;SDS011;502;48.746;9.214;2023-04-05T06:22:58;8.13;;;7.23;;
1026;SDS011;502;48.746;9.214;2023-04-05T06:25:24;10.93;;;8.07;;
1026;SDS011;502;48.746;9.214;2023-04-05T06:27:51;16.40;;;8.77;;
1026;SDS011;502;48.746;9.214;2023-04-05T06:30:18;11.57;;;8.13;;
1026;SDS011;502;48.746;9.214;2023-04-05T06:32:46;10.83;;;8.50;;
1026;SDS011;502;48.746;9.214;2023-04-05T06:35:18;12.70;;;8.50;;
1026;SDS011;502;48.746;9.214;2023-04-05T06:37:45;10.33;;;9.00;;
1026;SDS011;502;48.746;9.214;2023-04-05T06:40:12;11.07;;;8.30;;
1026;SDS011;502;48.746;9.214;2023-04-05T06:42:38;10.57;;;8.17;;
1026;SDS011;502;48.746;9.214;2023-04-05T06:45:09;9.50;;;7.80;;
1026;SDS011;502;48.746;9.214;2023-04-05T06:47:37;9.43;;;8.37;;
1026;SDS011;502;48.746;9.214;2023-04-05T06:50:07;11.67;;;8.97;;
1026;SDS011;502;48.746;9.214;2023-04-05T06:52:34;11.27;;;9.60;;
1026;SDS011;502;48.746;9.214;2023-04-05T06:55:01;10.40;;;8.93;;
1026;SDS011;502;48.746;9.214;2023-04-05T06:57:29;11.03;;;9.00;;
1026;SDS011;502;48.746;9.214;2023-04-05T06:59:55;13.10;;;9.20;;
1026;SDS011;502;48.746;9.214;2023-04-05T07:02:22;10.83;;;8.17;;
1026;SDS011;502;48.746;9.214;2023-04-05T07:04:49;12.37;;;8.90;;
1026;SDS011;502;48.746;9.214;2023-04-05T07:07:18;11.53;;;9.00;;
1026;SDS011;502;48.746;9.214;2023-04-05T07:09:45;12.07;;;9.03;;
1026;SDS011;502;48.746;9.214;2023-04-05T07:12:12;11.47;;;8.73;;
1026;SDS011;502;48.746;9.214;2023-04-05T07:14:39;10.47;;;8.90;;
1026;SDS011;502;48.746;9.214;2023-04-05T07:17:05;10.50;;;9.40;;
1026;SDS011;502;48.746;9.214;2023-04-05T07:19:32;10.30;;;8.00;;
1026;SDS011;502;48.746;9.214;2023-04-05T07:21:59;8.83;;;7.80;;
1026;SDS011;502;48.746;9.214;2023-04-05T07:24:27;12.60;;;9.87;;
1026;SDS011;502;48.746;9.214;2023-04-05T07:26:54;11.47;;;9.63;;
1026;SDS011;502;48.746;9.214;2023-04-05T07:29:22;10.00;;;8.57;;
1026;SDS011;502;48.746;9.214;2023-04-05T07:31:49;10.60;;;9.50;;
1026;SDS011;502;48.746;9.214;2023-04-05T07:34:15;18.37;;;9.50;;
1026;SDS011;502;48.746;9.214;2023-04-05T07:36:42;12.17;;;9.80;;
1026;SDS011;502;48.746;9.214;2023-04-05T07:39:09;9.80;;;8.73;;
1026;SDS011;502;48.746;9.214;2023-04-05T07:41:37;13.07;;;9.57;;
1026;SDS011;502;48.746;9.214;2023-04-05T07:44:04;10.30;;;8.07;;
1026;SDS011;502;48.746;9.214;2023-04-05T07:46:30;11.40;;;9.80;;
1026;SDS011;502;48.746;9.214;2023-04-05T07:48:59;9.63;;;8.67;;
1026;SDS011;502;48.746;9.214;2023-04-05T07:51:26;10.73;;;9.30;;
1026;SDS011;502;48.746;9.214;2023-04-05T07:53:52;11.30;;;9.87;;
1026;SDS011;502;48.746;9.214;2023-04-05T07:56:19;13.17;;;9.63;;
1026;SDS011;502;48.746;9.214;2023-04-05T07:58:48;10.13;;;9.13;;
1026;SDS011;502;48.746;9.214;2023-04-05T08:01:19;11.50;;;10.30;;
1026;SDS011;502;48.746;9.214;2023-04-05T08:03:46;9.00;;;7.47;;
1026;SDS011;502;48.746;9.214;2023-04-05T08:06:13;8.67;;;7.87;;
1026;SDS011;502;48.746;9.214;2023-04-05T08:08:42;8.07;;;7.27;;
1026;SDS011;502;48.746;9.214;2023-04-05T08:11:09;9.73;;;8.73;;
1026;SDS011;502;48.746;9.214;2023-04-05T08:13:35;8.53;;;7.57;;
1026;SDS011;502;48.746;9.214;2023-04-05T08:16:07;9.23;;;8.27;;
1026;SDS011;502;48.746;9.214;2023-04-05T08:18:34;10.10;;;9.00;;
1026;SDS011;502;48.746;9.214;2023-04-05T08:21:00;12.00;;;6.80;;
1026;SDS011;502;48.746;9.214;2023-04-05T08:23:27;8.67;;;7.77;;
1026;SDS011;502;48.746;9.214;2023-04-05T08:25:54;7.93;;;7.13;;
1026;SDS011;502;48.746;9.214;2023-04-05T08:28:21;9.37;;;7.03;;
1026;SDS011;502;48.746;9.214;2023-04-05T08:30:47;8.80;;;7.47;;
1026;SDS011;502;48.746;9.214;2023-04-05T08:33:19;9.83;;;8.10;;
1026;SDS011;502;48.746;9.214;2023-04-05T08:35:46;7.63;;;6.67;;
1026;SDS011;502;48.746;9.214;2023-04-05T08:38:13;8.90;;;6.20;;
1026;SDS011;502;48.746;9.214;2023-04-05T08:40:40;7.53;;;6.73;;
1026;SDS011;502;48.746;9.214;2023-04-05T08:43:09;7.03;;;6.30;;
1026;SDS011;502;48.746;9.214;2023-04-05T08:45:40;8.20;;;7.40;;
1026;SDS011;502;48.746;9.214;2023-04-05T08:48:10;7.90;;;7.10;;
1026;SDS011;502;48.746;9.214;2023-04-05T08:50:38;6.50;;;5.90;;
1026;SDS011;502;48.746;9.214;2023-04-05T08:53:06;8.27;;;7.30;;
1026;SDS011;502;48.746;9.214;2023-04-05T08:55:34;7.70;;;6.73;;
1026;SDS011;502;48.746;9.214;2023-04-05T08:58:01;7.23;;;6.53;;
1026;SDS011;502;48.746;9.214;2023-04-05T09:00:29;6.13;;;5.53;;
1026;SDS011;502;48.746;9.214;2023-04-05T09:02:57;7.10;;;6.40;;
1026;SDS011;502;48.746;9.214;2023-04-05T09:05:26;10.07;;;6.30;;
1026;SDS011;502;48.746;9.214;2023-04-05T09:07:56;8.00;;;7.13;;
1026;SDS011;502;48.746;9.214;2023-04-05T09:10:23;7.77;;;6.47;;
1026;SDS011;502;48.746;9.214;2023-04-05T09:12:51;6.80;;;5.87;;
1026;SDS011;502;48.746;9.214;2023-04-05T09:15:18;6.90;;;6.20;;
1026;SDS011;502;48.746;9.214;2023-04-05T09:17:48;6.00;;;5.40;;
1026;SDS011;502;48.746;9.214;2023-04-05T09:20:15;7.60;;;6.23;;
1026;SDS011;502;48.746;9.214;2023-04-05T09:22:42;7.47;;;6.70;;
1026;SDS011;502;48.746;9.214;2023-04-05T09:25:11;8.30;;;7.07;;
1026;SDS011;502;48.746;9.214;2023-04-05T09:27:52;7.37;;;6.60;;
1026;SDS011;502;48.746;9.214;2023-04-05T09:30:20;7.20;;;6.50;;
1026;SDS011;502;48.746;9.214;2023-04-05T09:32:47;7.93;;;6.60;;
1026;SDS011;502;48.746;9.214;2023-04-05T09:35:17;8.53;;;6.67;;
1026;SDS011;502;48.746;9.214;2023-04-05T09:37:49;7.47;;;6.70;;
1026;SDS011;502;48.746;9.214;2023-04-05T09:40:19;8.37;;;7.23;;
1026;SDS011;502;48.746;9.214;2023-04-05T09:42:46;10.30;;;9.20;;
1026;SDS011;502;48.746;9.214;2023-04-05T09:45:14;8.20;;;7.40;;
1026;SDS011;502;48.746;9.214;2023-04-05T09:47:52;8.77;;;7.90;;
1026;SDS011;502;48.746;9.214;2023-04-05T09:50:19;9.70;;;8.60;;
1026;SDS011;502;48.746;9.214;2023-04-05T09:52:46;9.20;;;7.30;;
1026;SDS011;502;48.746;9.214;2023-04-05T09:55:14;9.30;;;7.47;;
1026;SDS011;502;48.746;9.214;2023-04-05T09:57:53;7.63;;;6.60;;
1026;SDS011;502;48.746;9.214;2023-04-05T10:00:20;9.70;;;7.50;;
1026;SDS011;502;48.746;9.214;2023-04-05T10:02:51;9.17;;;7.90;;
1026;SDS011;502;48.746;9.214;2023-04-05T10:05:18;7.10;;;6.40;;
1026;SDS011;502;48.746;9.214;2023-04-05T10:07:49;11.67;;;7.50;;
1026;SDS011;502;48.746;9.214;2023-04-05T10:10:16;11.60;;;8.07;;
1026;SDS011;502;48.746;9.214;2023-04-05T10:12:44;11.60;;;7.73;;
1026;SDS011;502;48.746;9.214;2023-04-05T10:15:11;8.90;;;6.33;;
1026;SDS011;502;48.746;9.214;2023-04-05T10:17:43;8.90;;;7.40;;
1026;SDS011;502;48.746;9.214;2023-04-05T10:20:14;11.00;;;8.50;;
1026;SDS011;502;48.746;9.214;2023-04-05T10:22:44;8.40;;;7.50;;
1026;SDS011;502;48.746;9.214;2023-04-05T10:25:21;9.90;;;8.50;;
1026;SDS011;502;48.746;9.214;2023-04-05T10:27:53;9.57;;;7.33;;
1026;SDS011;502;48.746;9.214;2023-04-05T10:30:22;11.50;;;8.10;;
1026;SDS011;502;48.746;9.214;2023-04-05T10:32:57;12.53;;;9.03;;
1026;SDS011;502;48.746;9.214;2023-04-05T10:35:33;10.83;;;8.33;;
1026;SDS011;502;48.746;9.214;2023-04-05T10:38:06;11.07;;;8.50;;
1026;SDS011;502;48.746;9.214;2023-04-05T10:40:37;9.83;;;8.83;;
1026;SDS011;502;48.746;9.214;2023-04-05T10:43:07;10.37;;;9.37;;
1026;SDS011;502;48.746;9.214;2023-04-05T10:45:41;10.03;;;8.50;;
1026;SDS011;502;48.746;9.214;2023-04-05T10:48:15;10.40;;;7.90;;
1026;SDS011;502;48.746;9.214;2023-04-05T10:50:46;10.07;;;9.03;;
1026;SDS011;502;48.746;9.214;2023-04-05T10:53:14;9.07;;;8.17;;
1026;SDS011;502;48.746;9.214;2023-04-05T10:55:42;10.07;;;9.07;;
1026;SDS011;502;48.746;9.214;2023-04-05T10:58:11;8.73;;;7.83;;
1026;SDS011;502;48.746;9.214;2023-04-05T11:00:38;9.13;;;8.23;;
1026;SDS011;502;48.746;9.214;2023-04-05T11:03:06;8.77;;;7.80;;
1026;SDS011;502;48.746;9.214;2023-04-05T11:05:33;10.83;;;8.40;;
1026;SDS011;502;48.746;9.214;2023-04-05T11:08:02;8.87;;;7.60;;
1026;SDS011;502;48.746;9.214;2023-04-05T11:10:31;9.33;;;7.43;;
1026;SDS011;502;48.746;9.214;2023-04-05T11:13:07;8.10;;;7.40;;
1026;SDS011;502;48.746;9.214;2023-04-05T11:15:36;8.50;;;7.60;;
1026;SDS011;502;48.746;9.214;2023-04-05T11:18:04;9.00;;;8.10;;
1026;SDS011;502;48.746;9.214;2023-04-05T11:20:38;10.10;;;8.50;;
1026;SDS011;502;48.746;9.214;2023-04-05T11:23:06;8.40;;;7.60;;
1026;SDS011;502;48.746;9.214;2023-04-05T11:25:36;7.73;;;7.03;;
1026;SDS011;502;48.746;9.214;2023-04-05T11:28:04;9.20;;;7.73;;
1026;SDS011;502;48.746;9.214;2023-04-05T11:30:46;8.53;;;7.67;;
1026;SDS011;502;48.746;9.214;2023-04-05T11:36:01;7.83;;;6.87;;
1026;SDS011;502;48.746;9.214;2023-04-05T11:38:28;8.50;;;7.30;;
1026;SDS011;502;48.746;9.214;2023-04-05T11:41:03;7.53;;;6.77;;
1026;SDS011;502;48.746;9.214;2023-04-05T11:43:31;8.40;;;7.50;;
1026;SDS011;502;48.746;9.214;2023-04-05T11:46:02;7.80;;;6.63;;
1026;SDS011;502;48.746;9.214;2023-04-05T11:48:29;8.53;;;6.00;;
1026;SDS011;502;48.746;9.214;2023-04-05T11:50:56;8.90;;;6.50;;
1026;SDS011;502;48.746;9.214;2023-04-05T11:53:23;7.43;;;6.40;;
1026;SDS011;502;48.746;9.214;2023-04-05T11:55:50;7.90;;;7.10;;
1026;SDS011;502;48.746;9.214;2023-04-05T11:58:18;11.53;;;7.40;;
1026;SDS011;502;48.746;9.214;2023-04-05T12:00:55;7.10;;;6.40;;
1026;SDS011;502;48.746;9.214;2023-04-05T12:03:25;8.03;;;6.80;;
1026;SDS011;502;48.746;9.214;2023-04-05T12:05:56;8.33;;;6.30;;
1026;SDS011;502;48.746;9.214;2023-04-05T12:08:37;6.80;;;6.10;;
1026;SDS011;502;48.746;9.214;2023-04-05T12:11:05;8.87;;;6.97;;
1026;SDS011;502;48.746;9.214;2023-04-05T12:13:32;7.33;;;6.57;;
1026;SDS011;502;48.746;9.214;2023-04-05T12:16:00;7.47;;;6.50;;
1026;SDS011;502;48.746;9.214;2023-04-05T12:18:30;7.30;;;6.70;;
1026;SDS011;502;48.746;9.214;2023-04-05T12:20:58;7.30;;;6.50;;
1026;SDS011;502;48.746;9.214;2023-04-05T12:23:26;7.03;;;6.30;;
1026;SDS011;502;48.746;9.214;2023-04-05T12:25:54;9.23;;;7.70;;
1026;SDS011;502;48.746;9.214;2023-04-05T12:28:21;8.27;;;7.00;;
1026;SDS011;502;48.746;9.214;2023-04-05T12:30:48;7.17;;;6.47;;
1026;SDS011;502;48.746;9.214;2023-04-05T12:33:15;10.10;;;8.33;;
1026;SDS011;502;48.746;9.214;2023-04-05T12:35:43;8.27;;;7.47;;
1026;SDS011;502;48.746;9.214;2023-04-05T12:38:12;8.33;;;6.97;;
1026;SDS011;502;48.746;9.214;2023-04-05T12:40:41;8.03;;;6.60;;
1026;SDS011;502;48.746;9.214;2023-04-05T12:43:10;8.83;;;7.00;;
1026;SDS011;502;48.746;9.214;2023-04-05T12:45:43;7.37;;;6.60;;
1026;SDS011;502;48.746;9.214;2023-04-05T12:48:11;11.80;;;6.67;;
1026;SDS011;502;48.746;9.214;2023-04-05T12:50:41;8.30;;;7.43;;
1026;SDS011;502;48.746;9.214;2023-04-05T12:53:14;9.40;;;7.40;;
1026;SDS011;502;48.746;9.214;2023-04-05T12:55:42;7.60;;;6.70;;
1026;SDS011;502;48.746;9.214;2023-04-05T12:58:10;8.00;;;7.20;;
1026;SDS011;502;48.746;9.214;2023-04-05T13:00:37;8.80;;;6.93;;
1026;SDS011;502;48.746;9.214;2023-04-05T13:03:04;9.27;;;6.47;;
1026;SDS011;502;48.746;9.214;2023-04-05T13:05:31;7.17;;;6.47;;
1026;SDS011;502;48.746;9.214;2023-04-05T13:07:59;7.40;;;6.50;;
1026;SDS011;502;48.746;9.214;2023-04-05T13:10:25;7.97;;;7.17;;
1026;SDS011;502;48.746;9.214;2023-04-05T13:12:52;10.40;;;8.13;;
1026;SDS011;502;48.746;9.214;2023-04-05T13:15:19;11.07;;;7.47;;
1026;SDS011;502;48.746;9.214;2023-04-05T13:17:46;8.47;;;7.40;;
1026;SDS011;502;48.746;9.214;2023-04-05T13:20:14;7.23;;;6.50;;
1026;SDS011;502;48.746;9.214;2023-04-05T13:22:42;7.27;;;6.43;;
1026;SDS011;502;48.746;9.214;2023-04-05T13:25:10;9.20;;;7.80;;
1026;SDS011;502;48.746;9.214;2023-04-05T13:27:37;7.90;;;6.70;;
1026;SDS011;502;48.746;9.214;2023-04-05T13:30:04;8.10;;;7.07;;
1026;SDS011;502;48.746;9.214;2023-04-05T13:32:31;8.87;;;7.63;;
1026;SDS011;502;48.746;9.214;2023-04-05T13:34:58;7.40;;;6.70;;
1026;SDS011;502;48.746;9.214;2023-04-05T13:37:25;6.93;;;6.33;;
1026;SDS011;502;48.746;9.214;2023-04-05T13:39:52;8.67;;;7.87;;
1026;SDS011;502;48.746;9.214;2023-04-05T13:42:20;9.57;;;7.10;;
1026;SDS011;502;48.746;9.214;2023-04-05T13:44:48;9.00;;;7.37;;
1026;SDS011;502;48.746;9.214;2023-04-05T13:47:14;7.33;;;6.73;;
1026;SDS011;502;48.746;9.214;2023-04-05T13:49:41;7.80;;;6.93;;
1026;SDS011;502;48.746;9.214;2023-04-05T13:52:08;9.00;;;7.20;;
1026;SDS011;502;48.746;9.214;2023-04-05T13:54:35;11.63;;;6.90;;
1026;SDS011;502;48.746;9.214;2023-04-05T13:57:02;7.03;;;6.43;;
1026;SDS011;502;48.746;9.214;2023-04-05T13:59:31;6.47;;;5.70;;
1026;SDS011;502;48.746;9.214;2023-04-05T14:01:57;8.83;;;6.63;;
1026;SDS011;502;48.746;9.214;2023-04-05T14:04:24;10.33;;;7.30;;
1026;SDS011;502;48.746;9.214;2023-04-05T14:06:52;6.70;;;6.00;;
1026;SDS011;502;48.746;9.214;2023-04-05T14:09:19;7.10;;;5.70;;
1026;SDS011;502;48.746;9.214;2023-04-05T14:11:46;7.40;;;6.57;;
1026;SDS011;502;48.746;9.214;2023-04-05T14:14:13;7.83;;;7.03;;
1026;SDS011;502;48.746;9.214;2023-04-05T14:16:42;7.60;;;6.80;;
1026;SDS011;502;48.746;9.214;2023-04-05T14:19:10;8.80;;;7.10;;
1026;SDS011;502;48.746;9.214;2023-04-05T14:21:37;8.00;;;6.47;;
1026;SDS011;502;48.746;9.214;2023-04-05T14:24:05;8.20;;;6.50;;
1026;SDS011;502;48.746;9.214;2023-04-05T14:26:32;8.77;;;7.87;;
1026;SDS011;502;48.746;9.214;2023-04-05T14:28:59;7.40;;;6.70;;
1026;SDS011;502;48.746;9.214;2023-04-05T14:31:26;7.97;;;7.17;;
1026;SDS011;502;48.746;9.214;2023-04-05T14:33:54;9.97;;;7.10;;
1026;SDS011;502;48.746;9.214;2023-04-05T14:36:21;7.80;;;7.00;;
1026;SDS011;502;48.746;9.214;2023-04-05T14:38:48;7.83;;;7.03;;
1026;SDS011;502;48.746;9.214;2023-04-05T14:41:15;7.50;;;6.43;;
1026;SDS011;502;48.746;9.214;2023-04-05T14:43:43;7.53;;;6.73;;
1026;SDS011;502;48.746;9.214;2023-04-05T14:46:10;7.73;;;6.93;;
1026;SDS011;502;48.746;9.214;2023-04-05T14:48:37;7.53;;;6.53;;
1026;SDS011;502;48.746;9.214;2023-04-05T14:51:05;9.37;;;6.97;;
1026;SDS011;502;48.746;9.214;2023-04-05T14:53:32;7.67;;;6.20;;
1026;SDS011;502;48.746;9.214;2023-04-05T14:55:59;9.83;;;6.40;;
1026;SDS011;502;48.746;9.214;2023-04-05T14:58:26;7.60;;;6.80;;
1026;SDS011;502;48.746;9.214;2023-04-05T15:00:53;8.30;;;7.07;;
1026;SDS011;502;48.746;9.214;2023-04-05T15:03:20;7.67;;;6.70;;
1026;SDS011;502;48.746;9.214;2023-04-05T15:05:47;9.17;;;6.60;;
1026;SDS011;502;48.746;9.214;2023-04-05T15:08:16;7.77;;;7.00;;
1026;SDS011;502;48.746;9.214;2023-04-05T15:10:43;8.10;;;7.00;;
1026;SDS011;502;48.746;9.214;2023-04-05T15:13:11;9.47;;;7.17;;
1026;SDS011;502;48.746;9.214;2023-04-05T15:15:38;7.13;;;6.30;;
1026;SDS011;502;48.746;9.214;2023-04-05T15:18:05;8.33;;;6.23;;
1026;SDS011;502;48.746;9.214;2023-04-05T15:20:32;7.73;;;6.97;;
1026;SDS011;502;48.746;9.214;2023-04-05T15:22:59;8.07;;;7.17;;
1026;SDS011;502;48.746;9.214;2023-04-05T15:25:27;7.90;;;7.10;;
1026;SDS011;502;48.746;9.214;2023-04-05T15:27:54;8.17;;;6.27;;
1026;SDS011;502;48.746;9.214;2023-04-05T15:30:22;7.57;;;6.77;;
1026;SDS011;502;48.746;9.214;2023-04-05T15:32:51;8.10;;;7.10;;
1026;SDS011;502;48.746;9.214;2023-04-05T15:35:18;7.40;;;6.70;;
1026;SDS011;502;48.746;9.214;2023-04-05T15:37:45;8.37;;;7.47;;
1026;SDS011;502;48.746;9.214;2023-04-05T15:40:12;9.47;;;7.07;;
1026;SDS011;502;48.746;9.214;2023-04-05T15:42:41;7.63;;;6.93;;